sensor_id;sensor_type;location;lat;lon;timestamp;pressure;altitude;pressure_sealevel;temperature;humidity
38939;BME280;24211;49.980;19.776;2024-02-26T00:01:34;98410.56;;;8.81;100.00
38939;BME280;24211;49.980;19.776;2024-02-26T00:04:02;98413.44;;;8.80;100.00
38939;BME280;24211;49.980;19.776;2024-02-26T00:06:30;98412.03;;;8.77;100.00
38939;BME280;24211;49.980;19.776;2024-02-26T00:09:23;98411.97;;;8.72;100.00
38939;BME280;24211;49.980;19.776;2024-02-26T00:11:51;98416.13;;;8.68;100.00
38939;BME280;24211;49.980;19.776;2024-02-26T00:14:38;98421.59;;;8.62;100.00
38939;BME280;24211;49.980;19.776;2024-02-26T00:17:06;98417.53;;;8.59;100.00
38939;BME280;24211;49.980;19.776;2024-02-26T00:19:35;98413.13;;;8.53;100.00
38939;BME280;24211;49.980;19.776;2024-02-26T00:22:03;98410.34;;;8.48;100.00
38939;BME280;24211;49.980;19.776;2024-02-26T00:24:30;98407.13;;;8.46;100.00
38939;BME280;24211;49.980;19.776;2024-02-26T00:26:59;98414.41;;;8.39;100.00
38939;BME280;24211;49.980;19.776;2024-02-26T00:29:26;98409.44;;;8.31;100.00
38939;BME280;24211;49.980;19.776;2024-02-26T00:31:53;98406.63;;;8.26;100.00
38939;BME280;24211;49.980;19.776;2024-02-26T00:34:46;98411.16;;;8.25;100.00
38939;BME280;24211;49.980;19.776;2024-02-26T00:37:38;98412.44;;;8.23;100.00
38939;BME280;24211;49.980;19.776;2024-02-26T00:40:18;98418.78;;;8.22;100.00
38939;BME280;24211;49.980;19.776;2024-02-26T00:42:46;98414.97;;;8.18;100.00
38939;BME280;24211;49.980;19.776;2024-02-26T00:45:15;98410.09;;;8.15;100.00
38939;BME280;24211;49.980;19.776;2024-02-26T00:47:59;98407.31;;;8.10;100.00
38939;BME280;24211;49.980;19.776;2024-02-26T00:51:12;98402.91;;;8.04;100.00
38939;BME280;24211;49.980;19.776;2024-02-26T00:53:40;98397.25;;;8.00;100.00
38939;BME280;24211;49.980;19.776;2024-02-26T00:56:58;98398.41;;;7.93;100.00
38939;BME280;24211;49.980;19.776;2024-02-26T00:59:51;98394.13;;;7.91;100.00
38939;BME280;24211;49.980;19.776;2024-02-26T01:02:18;98396.19;;;7.89;100.00
38939;BME280;24211;49.980;19.776;2024-02-26T01:04:59;98400.38;;;7.85;100.00
38939;BME280;24211;49.980;19.776;2024-02-26T01:07:26;98393.88;;;7.81;100.00
38939;BME280;24211;49.980;19.776;2024-02-26T01:09:54;98399.66;;;7.78;100.00
38939;BME280;24211;49.980;19.776;2024-02-26T01:12:25;98395.81;;;7.74;100.00
38939;BME280;24211;49.980;19.776;2024-02-26T01:15:21;98396.50;;;7.70;100.00
38939;BME280;24211;49.980;19.776;2024-02-26T01:17:57;98398.84;;;7.66;100.00
38939;BME280;24211;49.980;19.776;2024-02-26T01:20:50;98404.47;;;7.58;100.00
38939;BME280;24211;49.980;19.776;2024-02-26T01:23:44;98407.81;;;7.54;100.00
38939;BME280;24211;49.980;19.776;2024-02-26T01:26:11;98404.66;;;7.45;100.00
38939;BME280;24211;49.980;19.776;2024-02-26T01:29:03;98403.72;;;7.40;100.00
38939;BME280;24211;49.980;19.776;2024-02-26T01:31:56;98415.16;;;7.40;100.00
38939;BME280;24211;49.980;19.776;2024-02-26T01:34:37;98406.84;;;7.37;100.00
38939;BME280;24211;49.980;19.776;2024-02-26T01:37:05;98416.06;;;7.34;100.00
38939;BME280;24211;49.980;19.776;2024-02-26T01:40:36;98406.34;;;7.28;100.00
38939;BME280;24211;49.980;19.776;2024-02-26T01:44:11;98409.28;;;7.20;100.00
38939;BME280;24211;49.980;19.776;2024-02-26T01:46:39;98411.38;;;7.18;100.00
38939;BME280;24211;49.980;19.776;2024-02-26T01:49:10;98408.72;;;7.18;100.00
38939;BME280;24211;49.980;19.776;2024-02-26T01:51:41;98411.22;;;7.13;100.00
38939;BME280;24211;49.980;19.776;2024-02-26T01:54:09;98404.31;;;7.12;100.00
38939;BME280;24211;49.980;19.776;2024-02-26T01:56:41;98408.00;;;7.11;100.00
38939;BME280;24211;49.980;19.776;2024-02-26T01:59:09;98404.03;;;7.02;100.00
38939;BME280;24211;49.980;19.776;2024-02-26T02:01:38;98404.25;;;7.00;100.00
38939;BME280;24211;49.980;19.776;2024-02-26T02:04:15;98402.84;;;6.98;100.00
38939;BME280;24211;49.980;19.776;2024-02-26T02:07:34;98404.91;;;6.96;100.00
38939;BME280;24211;49.980;19.776;2024-02-26T02:10:05;98392.88;;;6.93;100.00
38939;BME280;24211;49.980;19.776;2024-02-26T02:12:36;98402.13;;;6.91;100.00
38939;BME280;24211;49.980;19.776;2024-02-26T02:16:17;98401.97;;;6.86;100.00
38939;BME280;24211;49.980;19.776;2024-02-26T02:18:45;98404.88;;;6.84;100.00
38939;BME280;24211;49.980;19.776;2024-02-26T02:21:12;98407.59;;;6.78;100.00
38939;BME280;24211;49.980;19.776;2024-02-26T02:23:39;98417.50;;;6.71;100.00
38939;BME280;24211;49.980;19.776;2024-02-26T02:26:07;98417.94;;;6.68;100.00
38939;BME280;24211;49.980;19.776;2024-02-26T02:28:35;98416.28;;;6.67;100.00
38939;BME280;24211;49.980;19.776;2024-02-26T02:31:06;98417.78;;;6.63;100.00
38939;BME280;24211;49.980;19.776;2024-02-26T02:33:34;98420.88;;;6.59;100.00
38939;BME280;24211;49.980;19.776;2024-02-26T02:40:15;98426.63;;;6.56;100.00
38939;BME280;24211;49.980;19.776;2024-02-26T02:42:42;98429.13;;;6.51;100.00
38939;BME280;24211;49.980;19.776;2024-02-26T02:45:29;98417.34;;;6.47;100.00
38939;BME280;24211;49.980;19.776;2024-02-26T02:51:55;98429.28;;;6.38;100.00
38939;BME280;24211;49.980;19.776;2024-02-26T02:54:28;98426.47;;;6.33;100.00
38939;BME280;24211;49.980;19.776;2024-02-26T02:56:55;98422.00;;;6.27;100.00
38939;BME280;24211;49.980;19.776;2024-02-26T03:03:06;98431.56;;;6.10;100.00
38939;BME280;24211;49.980;19.776;2024-02-26T03:05:59;98424.66;;;6.09;100.00
38939;BME280;24211;49.980;19.776;2024-02-26T03:09:16;98423.00;;;6.08;100.00
38939;BME280;24211;49.980;19.776;2024-02-26T03:12:30;98425.91;;;6.07;100.00
38939;BME280;24211;49.980;19.776;2024-02-26T03:14:57;98429.16;;;6.02;100.00
38939;BME280;24211;49.980;19.776;2024-02-26T03:17:25;98414.72;;;5.98;100.00
38939;BME280;24211;49.980;19.776;2024-02-26T03:20:09;98424.75;;;5.96;100.00
38939;BME280;24211;49.980;19.776;2024-02-26T03:23:27;98408.09;;;5.89;100.00
38939;BME280;24211;49.980;19.776;2024-02-26T03:25:56;98408.28;;;5.87;100.00
38939;BME280;24211;49.980;19.776;2024-02-26T03:28:42;98410.53;;;5.84;100.00
38939;BME280;24211;49.980;19.776;2024-02-26T03:31:09;98403.00;;;5.81;100.00
38939;BME280;24211;49.980;19.776;2024-02-26T03:33:37;98399.97;;;5.77;100.00
38939;BME280;24211;49.980;19.776;2024-02-26T03:36:05;98393.06;;;5.76;100.00
38939;BME280;24211;49.980;19.776;2024-02-26T03:38:34;98389.81;;;5.74;100.00
38939;BME280;24211;49.980;19.776;2024-02-26T03:41:01;98394.31;;;5.74;100.00
38939;BME280;24211;49.980;19.776;2024-02-26T03:43:29;98389.44;;;5.71;100.00
38939;BME280;24211;49.980;19.776;2024-02-26T03:45:56;98394.72;;;5.71;100.00
38939;BME280;24211;49.980;19.776;2024-02-26T03:48:49;98386.19;;;5.69;100.00
38939;BME280;24211;49.980;19.776;2024-02-26T03:51:31;98382.13;;;5.66;100.00
38939;BME280;24211;49.980;19.776;2024-02-26T03:53:58;98387.03;;;5.63;100.00
38939;BME280;24211;49.980;19.776;2024-02-26T03:56:50;98384.84;;;5.60;100.00
38939;BME280;24211;49.980;19.776;2024-02-26T03:59:18;98384.69;;;5.55;100.00
38939;BME280;24211;49.980;19.776;2024-02-26T04:01:46;98388.75;;;5.51;100.00
38939;BME280;24211;49.980;19.776;2024-02-26T04:05:00;98381.03;;;5.49;100.00
38939;BME280;24211;49.980;19.776;2024-02-26T04:07:28;98386.97;;;5.45;100.00
38939;BME280;24211;49.980;19.776;2024-02-26T04:09:56;98386.81;;;5.40;100.00
38939;BME280;24211;49.980;19.776;2024-02-26T04:12:23;98382.97;;;5.36;100.00
38939;BME280;24211;49.980;19.776;2024-02-26T04:14:50;98376.47;;;5.32;100.00
38939;BME280;24211;49.980;19.776;2024-02-26T04:17:18;98375.88;;;5.29;100.00
38939;BME280;24211;49.980;19.776;2024-02-26T04:19:45;98362.03;;;5.27;100.00
38939;BME280;24211;49.980;19.776;2024-02-26T04:22:13;98366.50;;;5.27;100.00
38939;BME280;24211;49.980;19.776;2024-02-26T04:25:08;98355.97;;;5.20;100.00
38939;BME280;24211;49.980;19.776;2024-02-26T04:27:36;98365.75;;;5.20;100.00
38939;BME280;24211;49.980;19.776;2024-02-26T04:30:06;98364.94;;;5.19;100.00
38939;BME280;24211;49.980;19.776;2024-02-26T04:32:34;98362.53;;;5.11;100.00
38939;BME280;24211;49.980;19.776;2024-02-26T04:35:22;98369.47;;;5.12;100.00
38939;BME280;24211;49.980;19.776;2024-02-26T04:37:55;98368.88;;;5.10;100.00
38939;BME280;24211;49.980;19.776;2024-02-26T04:40:31;98362.97;;;5.08;100.00
38939;BME280;24211;49.980;19.776;2024-02-26T04:42:58;98366.63;;;5.07;100.00
38939;BME280;24211;49.980;19.776;2024-02-26T04:45:32;98363.38;;;5.05;100.00
38939;BME280;24211;49.980;19.776;2024-02-26T04:48:45;98367.47;;;5.01;100.00
38939;BME280;24211;49.980;19.776;2024-02-26T04:51:31;98361.81;;;4.98;100.00
38939;BME280;24211;49.980;19.776;2024-02-26T04:53:58;98360.63;;;4.94;100.00
38939;BME280;24211;49.980;19.776;2024-02-26T04:56:51;98359.34;;;4.96;100.00
38939;BME280;24211;49.980;19.776;2024-02-26T04:59:18;98357.75;;;4.95;100.00
38939;BME280;24211;49.980;19.776;2024-02-26T05:01:45;98362.44;;;4.93;100.00
38939;BME280;24211;49.980;19.776;2024-02-26T05:04:13;98362.00;;;4.96;100.00
38939;BME280;24211;49.980;19.776;2024-02-26T05:06:41;98364.06;;;4.94;100.00
38939;BME280;24211;49.980;19.776;2024-02-26T05:09:09;98367.94;;;4.92;100.00
38939;BME280;24211;49.980;19.776;2024-02-26T05:11:40;98359.19;;;4.91;100.00
38939;BME280;24211;49.980;19.776;2024-02-26T05:14:10;98367.94;;;4.92;100.00
38939;BME280;24211;49.980;19.776;2024-02-26T05:17:01;98362.22;;;4.95;100.00
38939;BME280;24211;49.980;19.776;2024-02-26T05:19:35;98357.75;;;4.95;100.00
38939;BME280;24211;49.980;19.776;2024-02-26T05:22:03;98357.75;;;4.95;100.00
38939;BME280;24211;49.980;19.776;2024-02-26T05:24:30;98365.91;;;4.94;100.00
38939;BME280;24211;49.980;19.776;2024-02-26T05:26:57;98366.69;;;4.94;100.00
38939;BME280;24211;49.980;19.776;2024-02-26T05:29:28;98365.09;;;4.93;100.00
38939;BME280;24211;49.980;19.776;2024-02-26T05:32:19;98379.56;;;4.91;100.00
38939;BME280;24211;49.980;19.776;2024-02-26T05:35:33;98385.03;;;4.89;100.00
38939;BME280;24211;49.980;19.776;2024-02-26T05:38:06;98373.44;;;4.90;100.00
38939;BME280;24211;49.980;19.776;2024-02-26T05:40:37;98381.63;;;4.89;100.00
38939;BME280;24211;49.980;19.776;2024-02-26T05:43:22;98390.34;;;4.89;100.00
38939;BME280;24211;49.980;19.776;2024-02-26T05:45:49;98382.22;;;4.84;100.00
38939;BME280;24211;49.980;19.776;2024-02-26T05:48:16;98389.56;;;4.82;100.00
38939;BME280;24211;49.980;19.776;2024-02-26T05:50:55;98384.88;;;4.84;100.00
38939;BME280;24211;49.980;19.776;2024-02-26T05:53:23;98393.63;;;4.85;100.00
38939;BME280;24211;49.980;19.776;2024-02-26T05:56:00;98389.56;;;4.82;100.00
38939;BME280;24211;49.980;19.776;2024-02-26T05:58:28;98387.97;;;4.81;100.00
38939;BME280;24211;49.980;19.776;2024-02-26T06:01:25;98395.72;;;4.76;100.00
38939;BME280;24211;49.980;19.776;2024-02-26T06:03:53;98382.72;;;4.68;100.00
38939;BME280;24211;49.980;19.776;2024-02-26T06:06:47;98387.00;;;4.69;100.00
38939;BME280;24211;49.980;19.776;2024-02-26T06:09:14;98391.06;;;4.72;100.00
38939;BME280;24211;49.980;19.776;2024-02-26T06:11:42;98385.53;;;4.73;100.00
38939;BME280;24211;49.980;19.776;2024-02-26T06:14:10;98394.50;;;4.72;100.00
38939;BME280;24211;49.980;19.776;2024-02-26T06:16:39;98396.13;;;4.73;100.00
38939;BME280;24211;49.980;19.776;2024-02-26T06:19:15;98396.13;;;4.73;100.00
38939;BME280;24211;49.980;19.776;2024-02-26T06:21:42;98387.19;;;4.74;100.00
38939;BME280;24211;49.980;19.776;2024-02-26T06:24:35;98397.75;;;4.74;100.00
38939;BME280;24211;49.980;19.776;2024-02-26T06:27:03;98403.66;;;4.76;100.00
38939;BME280;24211;49.980;19.776;2024-02-26T06:30:20;98418.50;;;4.77;100.00
38939;BME280;24211;49.980;19.776;2024-02-26T06:32:55;98423.78;;;4.77;100.00
38939;BME280;24211;49.980;19.776;2024-02-26T06:35:22;98426.44;;;4.77;100.00
38939;BME280;24211;49.980;19.776;2024-02-26T06:37:50;98429.09;;;4.77;100.00
38939;BME280;24211;49.980;19.776;2024-02-26T06:40:31;98431.53;;;4.79;100.00
38939;BME280;24211;49.980;19.776;2024-02-26T06:43:24;98421.75;;;4.79;100.00
38939;BME280;24211;49.980;19.776;2024-02-26T06:45:51;98424.38;;;4.79;100.00
38939;BME280;24211;49.980;19.776;2024-02-26T06:48:24;98413.66;;;4.74;100.00
38939;BME280;24211;49.980;19.776;2024-02-26T06:50:51;98415.28;;;4.69;100.00
38939;BME280;24211;49.980;19.776;2024-02-26T06:53:18;98439.28;;;4.74;100.00
38939;BME280;24211;49.980;19.776;2024-02-26T06:56:36;98434.19;;;4.72;100.00
38939;BME280;24211;49.980;19.776;2024-02-26T06:59:07;98420.53;;;4.75;100.00
38939;BME280;24211;49.980;19.776;2024-02-26T07:01:35;98415.25;;;4.75;100.00
38939;BME280;24211;49.980;19.776;2024-02-26T07:04:02;98416.44;;;4.79;100.00
38939;BME280;24211;49.980;19.776;2024-02-26T07:06:30;98422.28;;;4.94;100.00
38939;BME280;24211;49.980;19.776;2024-02-26T07:08:57;98431.00;;;5.08;100.00
38939;BME280;24211;49.980;19.776;2024-02-26T07:11:24;98407.72;;;5.16;100.00
38939;BME280;24211;49.980;19.776;2024-02-26T07:13:51;98409.34;;;5.17;100.00
38939;BME280;24211;49.980;19.776;2024-02-26T07:16:44;98419.09;;;5.23;100.00
38939;BME280;24211;49.980;19.776;2024-02-26T07:19:44;98419.50;;;5.27;100.00
38939;BME280;24211;49.980;19.776;2024-02-26T07:22:11;98422.53;;;5.31;100.00
38939;BME280;24211;49.980;19.776;2024-02-26T07:25:01;98420.25;;;5.34;100.00
38939;BME280;24211;49.980;19.776;2024-02-26T07:27:57;98421.50;;;5.32;100.00
38939;BME280;24211;49.980;19.776;2024-02-26T07:30:26;98426.38;;;5.35;100.00
38939;BME280;24211;49.980;19.776;2024-02-26T07:32:56;98425.50;;;5.41;100.00
38939;BME280;24211;49.980;19.776;2024-02-26T07:35:23;98416.72;;;5.47;100.00
38939;BME280;24211;49.980;19.776;2024-02-26T07:37:51;98423.44;;;5.49;100.00
38939;BME280;24211;49.980;19.776;2024-02-26T07:40:45;98427.91;;;5.49;100.00
38939;BME280;24211;49.980;19.776;2024-02-26T07:43:25;98426.31;;;5.48;100.00
38939;BME280;24211;49.980;19.776;2024-02-26T07:46:13;98427.91;;;5.55;100.00
38939;BME280;24211;49.980;19.776;2024-02-26T07:48:41;98437.69;;;5.55;100.00
38939;BME280;24211;49.980;19.776;2024-02-26T07:51:12;98412.78;;;5.56;100.00
38939;BME280;24211;49.980;19.776;2024-02-26T07:53:41;98422.91;;;5.65;100.00
38939;BME280;24211;49.980;19.776;2024-02-26T07:56:09;98422.88;;;5.72;100.00
38939;BME280;24211;49.980;19.776;2024-02-26T07:58:39;98422.00;;;5.78;100.00
38939;BME280;24211;49.980;19.776;2024-02-26T08:01:08;98431.75;;;5.84;100.00
38939;BME280;24211;49.980;19.776;2024-02-26T08:03:37;98430.91;;;5.90;100.00
38939;BME280;24211;49.980;19.776;2024-02-26T08:06:05;98426.34;;;5.97;100.00
38939;BME280;24211;49.980;19.776;2024-02-26T08:08:34;98424.09;;;6.01;100.00
38939;BME280;24211;49.980;19.776;2024-02-26T08:11:02;98419.97;;;6.05;100.00
38939;BME280;24211;49.980;19.776;2024-02-26T08:13:30;98418.28;;;6.10;100.00
38939;BME280;24211;49.980;19.776;2024-02-26T08:15:58;98425.41;;;6.16;100.00
38939;BME280;24211;49.980;19.776;2024-02-26T08:18:26;98417.13;;;6.24;100.00
38939;BME280;24211;49.980;19.776;2024-02-26T08:20:54;98423.34;;;6.36;100.00
38939;BME280;24211;49.980;19.776;2024-02-26T08:23:22;98415.69;;;6.46;100.00
38939;BME280;24211;49.980;19.776;2024-02-26T08:25:49;98418.50;;;6.51;100.00
38939;BME280;24211;49.980;19.776;2024-02-26T08:28:17;98425.38;;;6.59;100.00
38939;BME280;24211;49.980;19.776;2024-02-26T08:30:45;98415.88;;;6.70;100.00
38939;BME280;24211;49.980;19.776;2024-02-26T08:33:14;98419.41;;;6.82;100.00
38939;BME280;24211;49.980;19.776;2024-02-26T08:35:41;98415.34;;;6.97;100.00
38939;BME280;24211;49.980;19.776;2024-02-26T08:38:08;98408.44;;;7.38;100.00
38939;BME280;24211;49.980;19.776;2024-02-26T08:40:36;98410.97;;;7.33;100.00
38939;BME280;24211;49.980;19.776;2024-02-26T08:43:04;98410.91;;;7.39;100.00
38939;BME280;24211;49.980;19.776;2024-02-26T08:45:31;98406.97;;;7.83;100.00
38939;BME280;24211;49.980;19.776;2024-02-26T08:47:58;98401.78;;;8.23;100.00
38939;BME280;24211;49.980;19.776;2024-02-26T08:50:26;98399.47;;;8.03;100.00
38939;BME280;24211;49.980;19.776;2024-02-26T08:52:54;98400.84;;;8.06;100.00
38939;BME280;24211;49.980;19.776;2024-02-26T08:55:21;98403.41;;;8.01;100.00
38939;BME280;24211;49.980;19.776;2024-02-26T08:57:48;98400.84;;;8.06;100.00
38939;BME280;24211;49.980;19.776;2024-02-26T09:00:16;98393.34;;;8.49;100.00
38939;BME280;24211;49.980;19.776;2024-02-26T09:02:45;98391.28;;;8.39;100.00
38939;BME280;24211;49.980;19.776;2024-02-26T09:05:13;98381.84;;;9.11;100.00
38939;BME280;24211;49.980;19.776;2024-02-26T09:07:41;98379.53;;;9.32;100.00
38939;BME280;24211;49.980;19.776;2024-02-26T09:10:09;98382.97;;;9.15;100.00
38939;BME280;24211;49.980;19.776;2024-02-26T09:12:38;98390.41;;;9.13;100.00
38939;BME280;24211;49.980;19.776;2024-02-26T09:15:07;98395.34;;;9.21;100.00
38939;BME280;24211;49.980;19.776;2024-02-26T09:17:35;98383.28;;;9.19;100.00
38939;BME280;24211;49.980;19.776;2024-02-26T09:20:04;98389.06;;;9.28;100.00
38939;BME280;24211;49.980;19.776;2024-02-26T09:22:33;98401.84;;;9.26;100.00
38939;BME280;24211;49.980;19.776;2024-02-26T09:25:01;98400.19;;;9.25;100.00
38939;BME280;24211;49.980;19.776;2024-02-26T09:27:29;98403.44;;;9.27;100.00
38939;BME280;24211;49.980;19.776;2024-02-26T09:29:57;98395.53;;;9.32;100.00
38939;BME280;24211;49.980;19.776;2024-02-26T09:32:25;98403.63;;;9.37;100.00
38939;BME280;24211;49.980;19.776;2024-02-26T09:34:53;98399.28;;;9.47;100.00
38939;BME280;24211;49.980;19.776;2024-02-26T09:37:20;98401.72;;;9.49;100.00
38939;BME280;24211;49.980;19.776;2024-02-26T09:39:49;98396.56;;;9.59;100.00
38939;BME280;24211;49.980;19.776;2024-02-26T09:42:19;98397.72;;;9.79;100.00
38939;BME280;24211;49.980;19.776;2024-02-26T09:44:51;98394.50;;;9.94;100.00
38939;BME280;24211;49.980;19.776;2024-02-26T09:47:23;98402.75;;;10.09;100.00
38939;BME280;24211;49.980;19.776;2024-02-26T09:49:52;98399.75;;;10.22;100.00
38939;BME280;24211;49.980;19.776;2024-02-26T09:52:21;98396.19;;;10.33;100.00
38939;BME280;24211;49.980;19.776;2024-02-26T09:54:48;98384.09;;;10.47;100.00
38939;BME280;24211;49.980;19.776;2024-02-26T09:57:17;98380.00;;;10.62;100.00
38939;BME280;24211;49.980;19.776;2024-02-26T09:59:47;98386.31;;;10.72;100.00
38939;BME280;24211;49.980;19.776;2024-02-26T10:02:17;98379.28;;;10.88;100.00
38939;BME280;24211;49.980;19.776;2024-02-26T10:04:48;98381.50;;;10.96;100.00
38939;BME280;24211;49.980;19.776;2024-02-26T10:07:19;98371.00;;;11.11;100.00
38939;BME280;24211;49.980;19.776;2024-02-26T10:09:47;98375.91;;;11.19;100.00
38939;BME280;24211;49.980;19.776;2024-02-26T10:12:19;98377.13;;;11.33;100.00
38939;BME280;24211;49.980;19.776;2024-02-26T10:14:58;98367.00;;;11.40;100.00
38939;BME280;24211;49.980;19.776;2024-02-26T10:17:29;98365.00;;;11.52;100.00
38939;BME280;24211;49.980;19.776;2024-02-26T10:20:22;98362.63;;;11.82;100.00
38939;BME280;24211;49.980;19.776;2024-02-26T10:22:51;98365.47;;;12.03;100.00
38939;BME280;24211;49.980;19.776;2024-02-26T10:25:23;98365.00;;;12.11;100.00
38939;BME280;24211;49.980;19.776;2024-02-26T10:27:50;98366.13;;;12.20;100.00
38939;BME280;24211;49.980;19.776;2024-02-26T10:30:22;98369.84;;;12.19;100.00
38939;BME280;24211;49.980;19.776;2024-02-26T10:32:51;98369.88;;;12.24;100.00
38939;BME280;24211;49.980;19.776;2024-02-26T10:35:46;98373.97;;;12.36;100.00
38939;BME280;24211;49.980;19.776;2024-02-26T10:38:14;98362.28;;;12.48;100.00
38939;BME280;24211;49.980;19.776;2024-02-26T10:41:27;98353.53;;;12.67;100.00
38939;BME280;24211;49.980;19.776;2024-02-26T10:44:02;98344.44;;;12.73;100.00
38939;BME280;24211;49.980;19.776;2024-02-26T10:46:30;98341.81;;;12.88;100.00
38939;BME280;24211;49.980;19.776;2024-02-26T10:49:59;98343.47;;;12.99;100.00
38939;BME280;24211;49.980;19.776;2024-02-26T10:52:55;98344.53;;;13.03;100.00
38939;BME280;24211;49.980;19.776;2024-02-26T10:55:23;98347.81;;;13.10;100.00
38939;BME280;24211;49.980;19.776;2024-02-26T10:57:52;98349.72;;;13.20;100.00
38939;BME280;24211;49.980;19.776;2024-02-26T11:01:12;98351.09;;;13.38;100.00
38939;BME280;24211;49.980;19.776;2024-02-26T11:04:16;98344.66;;;13.54;100.00
38939;BME280;24211;49.980;19.776;2024-02-26T11:07:09;98340.94;;;13.60;100.00
38939;BME280;24211;49.980;19.776;2024-02-26T11:09:59;98328.56;;;13.74;100.00
38939;BME280;24211;49.980;19.776;2024-02-26T11:12:42;98331.78;;;13.86;100.00
38939;BME280;24211;49.980;19.776;2024-02-26T11:15:36;98329.09;;;13.91;100.00
38939;BME280;24211;49.980;19.776;2024-02-26T11:18:05;98337.69;;;14.08;100.00
38939;BME280;24211;49.980;19.776;2024-02-26T11:21:25;98335.78;;;14.39;100.00
38939;BME280;24211;49.980;19.776;2024-02-26T11:24:30;98333.31;;;14.58;100.00
38939;BME280;24211;49.980;19.776;2024-02-26T11:27:02;98326.81;;;14.69;100.00
38939;BME280;24211;49.980;19.776;2024-02-26T11:29:40;98327.56;;;14.84;100.00
38939;BME280;24211;49.980;19.776;2024-02-26T11:32:37;98324.59;;;14.91;100.00
38939;BME280;24211;49.980;19.776;2024-02-26T11:35:06;98318.88;;;15.02;100.00
38939;BME280;24211;49.980;19.776;2024-02-26T11:37:35;98318.81;;;15.13;100.00
38939;BME280;24211;49.980;19.776;2024-02-26T11:40:32;98309.97;;;15.07;100.00
38939;BME280;24211;49.980;19.776;2024-02-26T11:42:59;98321.25;;;15.04;100.00
38939;BME280;24211;49.980;19.776;2024-02-26T11:48:23;98318.53;;;15.14;100.00
38939;BME280;24211;49.980;19.776;2024-02-26T11:51:33;98320.31;;;15.29;100.00
38939;BME280;24211;49.980;19.776;2024-02-26T11:54:56;98310.81;;;15.41;100.00
38939;BME280;24211;49.980;19.776;2024-02-26T11:57:38;98314.03;;;15.43;100.00
38939;BME280;24211;49.980;19.776;2024-02-26T12:00:40;98312.44;;;15.42;100.00
38939;BME280;24211;49.980;19.776;2024-02-26T12:03:15;98314.84;;;15.44;100.00
38939;BME280;24211;49.980;19.776;2024-02-26T12:05:43;98315.69;;;15.39;100.00
38939;BME280;24211;49.980;19.776;2024-02-26T12:08:38;98301.69;;;15.37;100.00
38939;BME280;24211;49.980;19.776;2024-02-26T12:11:15;98298.97;;;15.47;100.00
38939;BME280;24211;49.980;19.776;2024-02-26T12:13:47;98288.44;;;15.51;100.00
38939;BME280;24211;49.980;19.776;2024-02-26T12:17:07;98298.34;;;15.55;100.00
38939;BME280;24211;49.980;19.776;2024-02-26T12:19:46;98295.94;;;15.54;100.00
38939;BME280;24211;49.980;19.776;2024-02-26T12:22:17;98297.28;;;15.56;100.00
38939;BME280;24211;49.980;19.776;2024-02-26T12:24:58;98303.13;;;15.63;100.00
38939;BME280;24211;49.980;19.776;2024-02-26T12:28:05;98306.03;;;15.72;100.00
38939;BME280;24211;49.980;19.776;2024-02-26T12:31:22;98303.53;;;15.81;100.00
38939;BME280;24211;49.980;19.776;2024-02-26T12:33:51;98300.25;;;15.89;100.00
38939;BME280;24211;49.980;19.776;2024-02-26T12:36:19;98300.97;;;15.99;100.00
38939;BME280;24211;49.980;19.776;2024-02-26T12:38:47;98288.47;;;16.08;100.00
38939;BME280;24211;49.980;19.776;2024-02-26T12:41:19;98302.91;;;16.17;100.00
38939;BME280;24211;49.980;19.776;2024-02-26T12:43:55;98302.59;;;16.24;100.00
38939;BME280;24211;49.980;19.776;2024-02-26T12:46:49;98291.69;;;16.34;100.00
38939;BME280;24211;49.980;19.776;2024-02-26T12:49:17;98292.78;;;16.33;100.00
38939;BME280;24211;49.980;19.776;2024-02-26T12:52:02;98292.28;;;16.31;100.00
38939;BME280;24211;49.980;19.776;2024-02-26T12:55:25;98295.19;;;16.34;100.00
38939;BME280;24211;49.980;19.776;2024-02-26T12:57:54;98299.72;;;16.39;100.00
38939;BME280;24211;49.980;19.776;2024-02-26T13:00:26;98291.06;;;16.42;100.00
38939;BME280;24211;49.980;19.776;2024-02-26T13:02:55;98298.25;;;16.52;100.00
38939;BME280;24211;49.980;19.776;2024-02-26T13:05:29;98296.31;;;16.57;100.00
38939;BME280;24211;49.980;19.776;2024-02-26T13:08:00;98298.94;;;16.62;100.00
38939;BME280;24211;49.980;19.776;2024-02-26T13:10:55;98300.78;;;16.67;100.00
38939;BME280;24211;49.980;19.776;2024-02-26T13:14:35;98300.22;;;16.70;100.00
38939;BME280;24211;49.980;19.776;2024-02-26T13:17:33;98296.19;;;16.67;100.00
38939;BME280;24211;49.980;19.776;2024-02-26T13:23:55;98302.09;;;16.69;100.00
38939;BME280;24211;49.980;19.776;2024-02-26T13:26:23;98299.34;;;16.74;100.00
38939;BME280;24211;49.980;19.776;2024-02-26T13:29:20;98303.66;;;16.75;100.00
38939;BME280;24211;49.980;19.776;2024-02-26T13:31:48;98312.84;;;16.74;100.00
38939;BME280;24211;49.980;19.776;2024-02-26T13:34:41;98305.31;;;16.71;100.00
38939;BME280;24211;49.980;19.776;2024-02-26T13:37:15;98308.81;;;16.72;100.00
38939;BME280;24211;49.980;19.776;2024-02-26T13:39:46;98308.81;;;16.72;100.00
38939;BME280;24211;49.980;19.776;2024-02-26T13:46:19;98316.75;;;16.63;100.00
38939;BME280;24211;49.980;19.776;2024-02-26T13:48:46;98319.97;;;16.65;100.00
38939;BME280;24211;49.980;19.776;2024-02-26T13:51:14;98314.50;;;16.70;100.00
38939;BME280;24211;49.980;19.776;2024-02-26T13:53:47;98314.78;;;16.69;100.00
38939;BME280;24211;49.980;19.776;2024-02-26T13:56:28;98312.94;;;16.64;100.00
38939;BME280;24211;49.980;19.776;2024-02-26T13:59:46;98316.16;;;16.66;100.00
38939;BME280;24211;49.980;19.776;2024-02-26T14:02:17;98314.56;;;16.65;100.00
38939;BME280;24211;49.980;19.776;2024-02-26T14:04:45;98311.06;;;16.65;100.00